Time;durP1;ratioP1;P1;durP2;ratioP2;P2;SDS_P1;SDS_P2;PMS_P1;PMS_P2;Temp;Humidity;BMP_temperature;BMP_pressure;BME280_temperature;BME280_humidity;BME280_pressure;Samples;Min_cycle;Max_cycle;Signal;HPM_P1;HPM_P2
2021/08/26 00:07:52;;;;;;;1.40;0.60;;;21.30;62.50;;;;;;4914708;29;19915;-83
2021/08/26 00:10:19;;;;;;;0.75;0.75;;;21.30;62.50;;;;;;4899751;29;20040;-83
2021/08/26 00:12:45;;;;;;;0.80;0.80;;;21.30;62.70;;;;;;4896292;29;20485;-84
2021/08/26 00:15:11;;;;;;;0.90;0.80;;;21.20;62.80;;;;;;4899206;29;20036;-83
2021/08/26 00:17:37;;;;;;;1.27;0.80;;;21.20;62.80;;;;;;4915812;29;20051;-83
2021/08/26 00:20:05;;;;;;;1.40;1.02;;;21.20;62.90;;;;;;4898130;29;20489;-83
2021/08/26 00:22:31;;;;;;;0.82;0.70;;;21.20;63.00;;;;;;4897862;29;20029;-83
2021/08/26 00:24:57;;;;;;;0.82;0.80;;;21.20;62.90;;;;;;4877035;29;20033;-83
2021/08/26 00:27:23;;;;;;;0.90;0.80;;;21.20;62.90;;;;;;4902874;29;20062;-83
2021/08/26 00:29:51;;;;;;;1.00;0.80;;;21.20;63.00;;;;;;4888017;29;20107;-83
2021/08/26 00:32:16;;;;;;;1.02;0.80;;;21.20;63.10;;;;;;4902822;29;20071;-83
2021/08/26 00:34:42;;;;;;;0.70;0.70;;;21.20;63.10;;;;;;4918556;29;20055;-83
2021/08/26 00:37:08;;;;;;;1.00;0.90;;;21.10;63.00;;;;;;4895489;29;20048;-83
2021/08/26 00:39:33;;;;;;;1.20;0.80;;;21.10;63.10;;;;;;4886492;29;20033;-82
2021/08/26 00:41:59;;;;;;;1.50;0.77;;;21.10;63.10;;;;;;4902870;29;20473;-83
2021/08/26 00:44:25;;;;;;;0.77;0.77;;;21.10;63.10;;;;;;4902934;29;20074;-83
2021/08/26 00:46:51;;;;;;;0.93;0.70;;;21.10;63.10;;;;;;4919513;29;20043;-83
2021/08/26 00:49:17;;;;;;;0.98;0.88;;;21.10;63.10;;;;;;4902899;29;20494;-83
2021/08/26 00:51:45;;;;;;;0.63;0.63;;;21.10;63.10;;;;;;4902439;29;20059;-83
2021/08/26 00:54:11;;;;;;;1.10;0.80;;;21.10;63.20;;;;;;4918734;29;20028;-83
2021/08/26 00:56:38;;;;;;;1.10;0.73;;;21.10;63.20;;;;;;4918879;29;20043;-83
2021/08/26 00:59:06;;;;;;;1.10;0.73;;;21.10;63.20;;;;;;4918087;29;20078;-83
2021/08/26 01:01:50;;;;;;;0.70;0.70;;;21.00;63.20;;;;;;4917290;29;20024;-86
2021/08/26 01:04:28;;;;;;;0.70;0.70;;;21.00;63.30;;;;;;4911339;29;20032;-83
2021/08/26 01:07:18;;;;;;;1.40;0.80;;;21.00;63.20;;;;;;4917972;29;20035;-83
2021/08/26 01:09:50;;;;;;;1.08;0.90;;;21.00;63.30;;;;;;4918529;29;20138;-84
2021/08/26 01:12:20;;;;;;;1.10;0.80;;;21.00;63.30;;;;;;4914949;29;20125;-83
2021/08/26 01:14:47;;;;;;;1.25;0.90;;;21.00;63.40;;;;;;4907623;29;20068;-83
2021/08/26 01:17:31;;;;;;;1.13;0.82;;;20.90;63.40;;;;;;4885709;29;20087;-82
2021/08/26 01:19:59;;;;;;;0.77;0.68;;;20.90;63.50;;;;;;4919114;29;20028;-84
2021/08/26 01:22:26;;;;;;;1.15;0.75;;;21.00;63.40;;;;;;4917984;29;20040;-83
2021/08/26 01:25:06;;;;;;;1.27;0.82;;;20.90;63.40;;;;;;4886543;29;20092;-83
2021/08/26 01:27:42;;;;;;;0.93;0.88;;;20.90;63.50;;;;;;4911889;29;20044;-83
2021/08/26 01:30:14;;;;;;;1.25;0.90;;;20.90;63.50;;;;;;4902042;29;20036;-83
2021/08/26 01:32:42;;;;;;;0.88;0.70;;;20.90;63.50;;;;;;4922873;29;20027;-84
2021/08/26 01:35:09;;;;;;;1.20;0.90;;;20.90;63.50;;;;;;4914647;29;20028;-82
2021/08/26 01:37:40;;;;;;;1.02;0.93;;;20.90;63.50;;;;;;4917003;29;20044;-84
2021/08/26 01:40:07;;;;;;;1.30;0.90;;;20.80;63.50;;;;;;4895546;29;20043;-83
2021/08/26 01:42:33;;;;;;;0.75;0.75;;;20.80;63.50;;;;;;4916566;29;20028;-82
2021/08/26 01:44:59;;;;;;;1.17;0.98;;;20.80;63.50;;;;;;4896608;29;20044;-82
2021/08/26 01:47:25;;;;;;;1.05;0.85;;;20.80;63.50;;;;;;4899283;29;20032;-83
2021/08/26 01:49:52;;;;;;;1.23;0.95;;;20.80;63.50;;;;;;4917267;29;20473;-82
2021/08/26 01:52:20;;;;;;;1.13;0.90;;;20.80;63.50;;;;;;4898690;29;20047;-83
2021/08/26 01:55:03;;;;;;;2.05;1.10;;;20.80;63.50;;;;;;4917340;29;20028;-81
2021/08/26 01:57:30;;;;;;;1.13;1.02;;;20.80;63.60;;;;;;4917480;29;20064;-83
2021/08/26 02:00:00;;;;;;;1.13;0.93;;;20.80;63.60;;;;;;4917887;29;20024;-82
2021/08/26 02:02:26;;;;;;;1.23;1.00;;;20.80;63.60;;;;;;4917401;29;20108;-82
2021/08/26 02:04:52;;;;;;;0.98;0.90;;;20.80;63.60;;;;;;4900999;29;20481;-82
2021/08/26 02:07:18;;;;;;;1.77;1.00;;;20.80;63.60;;;;;;4885683;29;20038;-83
2021/08/26 02:09:43;;;;;;;2.08;1.15;;;20.70;63.50;;;;;;4916896;29;20465;-82
2021/08/26 02:12:09;;;;;;;2.15;1.20;;;20.70;63.60;;;;;;4900985;29;20119;-83
2021/08/26 02:14:35;;;;;;;2.00;1.10;;;20.70;63.60;;;;;;4898070;29;20423;-82
2021/08/26 02:17:01;;;;;;;1.75;1.00;;;20.70;63.60;;;;;;4881524;29;20044;-83
2021/08/26 02:19:27;;;;;;;1.13;0.82;;;20.70;63.60;;;;;;4900375;29;20074;-82
2021/08/26 02:21:53;;;;;;;1.48;1.00;;;20.70;63.60;;;;;;4915969;29;20485;-82
2021/08/26 02:24:19;;;;;;;2.13;1.08;;;20.60;63.60;;;;;;4884499;29;20040;-82
2021/08/26 02:26:45;;;;;;;2.17;1.10;;;20.70;63.60;;;;;;4915923;29;20055;-84
2021/08/26 02:29:10;;;;;;;1.58;0.90;;;20.60;63.60;;;;;;4900415;29;20028;-83
2021/08/26 02:31:36;;;;;;;2.25;1.20;;;20.60;63.60;;;;;;4900005;29;20497;-84
2021/08/26 02:34:02;;;;;;;2.33;1.17;;;20.60;63.60;;;;;;4894667;29;20367;-83
2021/08/26 02:36:28;;;;;;;2.50;1.20;;;20.60;63.60;;;;;;4898334;29;20462;-84
2021/08/26 02:38:53;;;;;;;1.58;1.17;;;20.60;63.60;;;;;;4896617;29;20044;-83
2021/08/26 02:41:20;;;;;;;1.40;1.08;;;20.60;63.60;;;;;;4914931;29;20040;-83
2021/08/26 02:43:45;;;;;;;1.20;1.00;;;20.50;63.60;;;;;;4898559;29;20063;-83
2021/08/26 02:46:11;;;;;;;2.05;1.05;;;20.50;63.60;;;;;;4900266;29;20060;-83
2021/08/26 02:48:37;;;;;;;2.08;1.40;;;20.50;63.70;;;;;;4915724;29;20042;-82
2021/08/26 02:51:03;;;;;;;3.45;1.10;;;20.50;63.80;;;;;;4900129;29;20028;-83
2021/08/26 02:53:29;;;;;;;2.55;1.58;;;20.50;63.70;;;;;;4884499;29;20401;-84
2021/08/26 02:55:57;;;;;;;3.58;1.58;;;20.50;63.70;;;;;;4915048;29;20040;-83
2021/08/26 02:58:23;;;;;;;1.73;1.17;;;20.40;63.70;;;;;;4884775;29;20131;-82
2021/08/26 03:00:49;;;;;;;1.23;1.10;;;20.40;63.70;;;;;;4916132;29;20036;-83
2021/08/26 03:03:15;;;;;;;1.92;1.15;;;20.50;63.80;;;;;;4881207;29;20039;-82
2021/08/26 03:05:41;;;;;;;1.63;1.02;;;20.40;63.70;;;;;;4897420;29;20044;-83
2021/08/26 03:08:07;;;;;;;2.03;1.10;;;20.40;63.70;;;;;;4899699;29;20042;-82
2021/08/26 03:10:33;;;;;;;2.85;1.27;;;20.40;63.70;;;;;;4915283;29;20095;-82
2021/08/26 03:12:58;;;;;;;3.05;1.40;;;20.40;63.80;;;;;;4883576;29;21497;-83
2021/08/26 03:15:24;;;;;;;3.72;1.38;;;20.40;63.80;;;;;;4899654;29;20035;-83
2021/08/26 03:17:50;;;;;;;2.35;1.38;;;20.40;63.80;;;;;;4914866;29;20473;-83
2021/08/26 03:20:16;;;;;;;1.55;1.15;;;20.30;63.80;;;;;;4888832;29;20036;-83
2021/08/26 03:22:42;;;;;;;2.15;1.33;;;20.30;63.80;;;;;;4892297;29;20446;-83
2021/08/26 03:25:08;;;;;;;2.42;1.48;;;20.30;63.80;;;;;;4915384;29;20068;-82
2021/08/26 03:27:34;;;;;;;2.17;1.40;;;20.30;63.90;;;;;;4899795;29;20056;-83
2021/08/26 03:30:00;;;;;;;2.58;1.58;;;20.30;63.90;;;;;;4899415;29;20059;-83
2021/08/26 03:32:25;;;;;;;2.38;1.25;;;20.30;63.90;;;;;;4900403;29;20114;-82
2021/08/26 03:34:51;;;;;;;2.25;1.35;;;20.30;63.90;;;;;;4899562;29;20087;-83
2021/08/26 03:37:17;;;;;;;2.88;1.42;;;20.30;64.00;;;;;;4914926;29;20070;-83
2021/08/26 03:39:43;;;;;;;3.38;1.30;;;20.20;63.90;;;;;;4914986;29;20477;-82
2021/08/26 03:42:09;;;;;;;2.35;1.25;;;20.20;64.60;;;;;;4883674;29;20043;-83
2021/08/26 03:44:35;;;;;;;3.45;1.70;;;20.30;64.00;;;;;;4891616;29;20036;-83
2021/08/26 03:47:01;;;;;;;2.80;1.48;;;20.20;64.00;;;;;;4896500;29;20394;-82
2021/08/26 03:49:29;;;;;;;3.60;1.50;;;20.20;64.00;;;;;;4879326;29;20041;-83
2021/08/26 03:51:55;;;;;;;2.20;1.30;;;20.20;64.00;;;;;;4899697;29;20039;-83
2021/08/26 03:54:21;;;;;;;1.52;1.10;;;20.20;64.10;;;;;;4895966;29;20036;-83
2021/08/26 03:56:47;;;;;;;2.92;1.60;;;20.20;64.10;;;;;;4898592;29;20387;-82
2021/08/26 03:59:13;;;;;;;2.28;1.35;;;20.20;64.10;;;;;;4915106;29;20529;-82
2021/08/26 04:01:38;;;;;;;2.38;1.30;;;20.10;64.10;;;;;;4916196;29;20028;-83
2021/08/26 04:04:04;;;;;;;3.45;1.70;;;20.20;64.20;;;;;;4914957;29;20027;-83
2021/08/26 04:06:30;;;;;;;3.90;1.60;;;20.10;64.10;;;;;;4899510;29;20051;-82
2021/08/26 04:08:56;;;;;;;2.25;1.40;;;20.10;64.20;;;;;;4915098;29;20032;-83
2021/08/26 04:11:21;;;;;;;3.80;1.73;;;20.10;64.20;;;;;;4899368;29;20551;-82
2021/08/26 04:13:48;;;;;;;2.53;1.30;;;20.10;64.20;;;;;;4915168;29;20051;-82
2021/08/26 04:16:14;;;;;;;2.40;1.35;;;20.10;64.20;;;;;;4883643;29;20056;-82
2021/08/26 04:18:39;;;;;;;1.48;1.13;;;20.10;64.30;;;;;;4899729;29;20067;-81
2021/08/26 04:21:05;;;;;;;2.50;1.40;;;20.00;64.30;;;;;;4883417;29;20565;-83
2021/08/26 04:23:31;;;;;;;3.28;1.75;;;20.00;64.30;;;;;;4915060;29;20477;-82
2021/08/26 04:25:57;;;;;;;2.65;1.48;;;20.00;64.30;;;;;;4898817;29;20056;-83
2021/08/26 04:28:23;;;;;;;3.55;1.30;;;20.00;64.30;;;;;;4915010;29;20396;-82
2021/08/26 04:30:49;;;;;;;2.47;1.42;;;20.00;64.30;;;;;;4914009;29;20119;-84
2021/08/26 04:33:15;;;;;;;2.95;1.70;;;20.00;64.40;;;;;;4898175;29;20036;-83
2021/08/26 04:35:40;;;;;;;2.22;1.30;;;20.00;64.40;;;;;;4898733;29;20119;-83
2021/08/26 04:38:06;;;;;;;2.50;1.40;;;20.00;64.40;;;;;;4898311;29;20549;-82
2021/08/26 04:40:32;;;;;;;2.92;1.40;;;20.00;64.40;;;;;;4913859;29;20036;-83
2021/08/26 04:42:58;;;;;;;3.25;1.50;;;19.90;64.40;;;;;;4914578;29;20036;-82
2021/08/26 04:45:23;;;;;;;3.75;1.40;;;19.90;64.30;;;;;;4895742;29;20474;-82
2021/08/26 04:47:49;;;;;;;3.13;1.50;;;19.90;64.40;;;;;;4898583;29;20483;-82
2021/08/26 04:50:15;;;;;;;2.10;1.35;;;19.90;64.40;;;;;;4915267;29;20044;-83
2021/08/26 04:52:41;;;;;;;2.03;1.45;;;19.90;64.40;;;;;;4898775;29;20393;-83
2021/08/26 04:55:07;;;;;;;1.90;1.23;;;19.90;64.40;;;;;;4894656;29;20032;-82
2021/08/26 04:57:33;;;;;;;2.83;1.42;;;19.90;64.40;;;;;;4914227;29;20044;-83
2021/08/26 04:59:59;;;;;;;2.92;1.40;;;19.90;64.50;;;;;;4882954;29;20608;-83
2021/08/26 05:02:24;;;;;;;2.72;1.50;;;19.90;64.40;;;;;;4899241;29;20496;-82
2021/08/26 05:04:50;;;;;;;3.00;1.55;;;19.80;64.40;;;;;;4898921;29;20413;-82
2021/08/26 05:07:16;;;;;;;2.58;1.27;;;19.90;64.50;;;;;;4916209;29;20666;-82
2021/08/26 05:09:41;;;;;;;2.88;1.42;;;19.90;64.50;;;;;;4917610;29;20473;-83
2021/08/26 05:12:08;;;;;;;2.03;1.33;;;19.80;64.40;;;;;;4917232;29;20493;-82
2021/08/26 05:14:34;;;;;;;2.88;1.42;;;19.80;64.40;;;;;;4898805;29;20112;-83
2021/08/26 05:17:00;;;;;;;1.80;1.17;;;19.80;64.50;;;;;;4882293;29;20485;-83
2021/08/26 05:19:26;;;;;;;2.33;1.20;;;19.80;64.50;;;;;;4902127;29;20040;-84
2021/08/26 05:21:52;;;;;;;2.38;1.20;;;19.80;64.50;;;;;;4897424;29;20036;-82
2021/08/26 05:24:18;;;;;;;4.00;1.52;;;19.80;64.50;;;;;;4883330;29;20071;-83
2021/08/26 05:26:44;;;;;;;2.15;1.30;;;19.80;64.60;;;;;;4917074;29;20111;-83
2021/08/26 05:29:10;;;;;;;2.13;1.10;;;19.80;64.60;;;;;;4901498;29;20047;-83
2021/08/26 05:31:39;;;;;;;2.42;1.38;;;19.80;64.60;;;;;;4917474;29;20039;-83
2021/08/26 05:34:04;;;;;;;1.98;1.17;;;19.70;64.60;;;;;;4886371;29;20032;-83
2021/08/26 05:36:30;;;;;;;3.10;1.50;;;19.70;64.70;;;;;;4917950;29;20449;-83
2021/08/26 05:38:56;;;;;;;2.30;1.35;;;19.70;64.70;;;;;;4902355;29;20072;-82
2021/08/26 05:41:21;;;;;;;3.50;1.30;;;19.70;65.10;;;;;;4901843;29;20537;-83
2021/08/26 05:43:47;;;;;;;1.52;1.20;;;19.70;64.70;;;;;;4917391;29;20036;-83
2021/08/26 05:46:13;;;;;;;3.20;1.40;;;19.70;64.70;;;;;;4901549;29;20067;-83
2021/08/26 05:48:39;;;;;;;3.30;1.30;;;19.70;64.70;;;;;;4901616;29;20066;-83
2021/08/26 05:51:04;;;;;;;2.55;1.48;;;19.70;64.70;;;;;;4917110;29;20036;-83
2021/08/26 05:53:30;;;;;;;3.30;1.33;;;19.70;64.70;;;;;;4917348;29;20020;-83
2021/08/26 05:55:56;;;;;;;2.63;1.40;;;19.70;64.80;;;;;;4893489;29;20036;-83
2021/08/26 05:58:22;;;;;;;2.65;1.40;;;19.60;64.70;;;;;;4899608;29;20032;-83
2021/08/26 06:00:49;;;;;;;2.70;1.48;;;19.70;64.80;;;;;;4902087;29;20388;-83
2021/08/26 06:03:15;;;;;;;2.63;1.50;;;19.60;64.80;;;;;;4901945;29;20028;-83
2021/08/26 06:05:42;;;;;;;1.88;1.40;;;19.70;64.80;;;;;;4917358;29;20028;-83
2021/08/26 06:08:07;;;;;;;3.38;1.52;;;19.60;65.40;;;;;;4916225;29;20044;-85
2021/08/26 06:10:33;;;;;;;1.88;1.13;;;19.60;65.40;;;;;;4916036;29;20020;-84
2021/08/26 06:12:59;;;;;;;2.65;1.05;;;19.60;64.80;;;;;;4918214;29;20038;-83
2021/08/26 06:15:25;;;;;;;1.48;1.10;;;19.60;64.80;;;;;;4898576;29;20084;-83
2021/08/26 06:17:51;;;;;;;2.65;1.33;;;19.60;64.90;;;;;;4900744;29;20520;-83
2021/08/26 06:20:17;;;;;;;1.90;1.08;;;19.60;64.90;;;;;;4897646;29;20036;-83
2021/08/26 06:22:43;;;;;;;2.00;1.15;;;19.60;64.90;;;;;;4884819;29;20482;-82
2021/08/26 06:25:11;;;;;;;1.38;1.05;;;19.60;64.90;;;;;;4900513;29;20039;-83
2021/08/26 06:27:37;;;;;;;2.55;1.33;;;19.60;65.00;;;;;;4916548;29;20036;-83
2021/08/26 06:30:04;;;;;;;2.72;1.30;;;19.60;65.00;;;;;;4897864;29;20041;-83
2021/08/26 06:32:30;;;;;;;1.88;1.10;;;19.60;65.00;;;;;;4898047;29;20036;-83
2021/08/26 06:34:58;;;;;;;2.67;1.15;;;19.60;65.00;;;;;;4891902;29;20064;-82
2021/08/26 06:37:24;;;;;;;2.60;1.30;;;19.60;65.00;;;;;;4897406;29;20801;-82
2021/08/26 06:39:50;;;;;;;2.10;1.20;;;19.60;65.00;;;;;;4897034;29;20537;-83
2021/08/26 06:42:15;;;;;;;2.50;1.27;;;19.60;65.10;;;;;;4881307;29;20119;-83
2021/08/26 06:44:41;;;;;;;2.85;1.30;;;19.60;65.10;;;;;;4912924;29;20039;-83
2021/08/26 06:47:07;;;;;;;2.10;1.38;;;19.60;65.10;;;;;;4916090;29;20028;-83
2021/08/26 06:49:33;;;;;;;2.20;1.10;;;19.60;65.10;;;;;;4884995;29;20098;-81
2021/08/26 06:51:58;;;;;;;2.65;1.05;;;19.60;65.10;;;;;;4869591;29;20032;-83
2021/08/26 06:54:24;;;;;;;2.03;1.15;;;19.60;65.10;;;;;;4916917;29;20055;-83
2021/08/26 06:56:52;;;;;;;1.85;1.20;;;19.60;65.10;;;;;;4900550;29;20397;-83
2021/08/26 06:59:17;;;;;;;2.15;1.20;;;19.60;65.10;;;;;;4915623;29;20048;-83
2021/08/26 07:01:43;;;;;;;1.63;1.17;;;19.60;65.10;;;;;;4900811;29;20374;-81
2021/08/26 07:04:09;;;;;;;2.70;1.30;;;19.60;65.10;;;;;;4881533;29;20123;-83
2021/08/26 07:06:35;;;;;;;2.92;1.50;;;19.60;65.20;;;;;;4884584;29;20048;-83
2021/08/26 07:09:01;;;;;;;2.53;1.20;;;19.60;65.20;;;;;;4896937;29;20043;-82
2021/08/26 07:11:27;;;;;;;2.55;1.20;;;19.60;65.20;;;;;;4898737;29;20386;-82
2021/08/26 07:13:52;;;;;;;3.58;1.20;;;19.60;65.20;;;;;;4899943;29;20032;-82
2021/08/26 07:16:18;;;;;;;2.63;1.35;;;19.60;65.90;;;;;;4899790;29;20064;-83
2021/08/26 07:18:44;;;;;;;3.35;1.30;;;19.60;65.30;;;;;;4883805;29;20058;-83
2021/08/26 07:21:10;;;;;;;1.85;1.05;;;19.70;65.30;;;;;;4896897;29;20393;-86
2021/08/26 07:23:35;;;;;;;1.70;1.10;;;19.70;65.20;;;;;;4881808;29;20036;-83
2021/08/26 07:26:01;;;;;;;3.05;1.20;;;19.70;65.30;;;;;;4896608;29;20474;-83
2021/08/26 07:28:27;;;;;;;3.20;1.25;;;19.70;65.20;;;;;;4912317;29;20028;-83
2021/08/26 07:30:53;;;;;;;2.35;1.10;;;19.70;65.90;;;;;;4914927;29;20032;-83
2021/08/26 07:33:19;;;;;;;2.63;1.10;;;19.70;65.30;;;;;;4880990;29;20037;-82
2021/08/26 07:35:45;;;;;;;1.67;1.10;;;19.70;65.30;;;;;;4897342;29;20032;-82
2021/08/26 07:38:10;;;;;;;3.25;1.40;;;19.70;65.20;;;;;;4899827;29;20037;-82
2021/08/26 07:40:36;;;;;;;2.42;1.20;;;19.70;65.30;;;;;;4899490;29;20039;-82
2021/08/26 07:43:02;;;;;;;2.13;1.05;;;19.70;65.30;;;;;;4916817;29;20477;-82
2021/08/26 07:45:28;;;;;;;2.38;1.20;;;19.70;65.30;;;;;;4899394;29;20051;-82
2021/08/26 07:47:53;;;;;;;2.22;0.95;;;19.80;65.30;;;;;;4896459;29;20051;-83
2021/08/26 07:50:21;;;;;;;1.50;0.93;;;19.80;65.30;;;;;;4900070;29;20035;-82
2021/08/26 07:52:47;;;;;;;2.92;1.35;;;19.80;65.40;;;;;;4915033;29;20032;-82
2021/08/26 07:55:13;;;;;;;1.15;0.98;;;19.80;65.40;;;;;;4896506;29;20096;-83
2021/08/26 07:57:38;;;;;;;2.15;1.20;;;19.80;65.40;;;;;;4893592;29;20083;-83
2021/08/26 08:00:05;;;;;;;2.58;1.15;;;19.80;65.40;;;;;;4884404;29;20447;-84
2021/08/26 08:02:31;;;;;;;1.27;0.90;;;19.80;65.40;;;;;;4916489;29;20025;-83
2021/08/26 08:04:57;;;;;;;3.25;1.20;;;19.80;65.40;;;;;;4900448;29;20040;-85
2021/08/26 08:07:23;;;;;;;2.95;1.25;;;19.80;65.40;;;;;;4899343;29;20036;-81
2021/08/26 08:09:48;;;;;;;2.17;1.20;;;19.80;65.40;;;;;;4915670;29;20036;-81
2021/08/26 08:12:14;;;;;;;2.65;1.33;;;19.90;65.50;;;;;;4899844;29;20075;-89
2021/08/26 08:14:42;;;;;;;2.08;1.10;;;19.90;65.50;;;;;;4916747;29;20028;-81
2021/08/26 08:17:09;;;;;;;1.90;1.20;;;19.90;65.50;;;;;;4899866;29;20051;-81
2021/08/26 08:19:35;;;;;;;1.92;1.30;;;19.90;65.50;;;;;;4916700;29;20039;-84
2021/08/26 08:22:01;;;;;;;1.95;1.10;;;19.90;65.50;;;;;;4895590;29;20029;-84
2021/08/26 08:24:28;;;;;;;2.10;1.20;;;19.90;65.50;;;;;;4911523;29;20500;-86
2021/08/26 08:26:54;;;;;;;2.40;1.27;;;20.00;65.60;;;;;;4898529;29;20056;-79
2021/08/26 08:29:20;;;;;;;4.53;1.30;;;19.90;65.60;;;;;;4914044;29;20036;-78
2021/08/26 08:31:46;;;;;;;2.25;1.23;;;20.00;65.70;;;;;;4889369;29;20037;-80
2021/08/26 08:34:11;;;;;;;2.83;1.27;;;20.00;65.70;;;;;;4906103;29;20537;-79
2021/08/26 08:36:37;;;;;;;2.33;1.30;;;20.10;65.70;;;;;;4912732;29;20127;-80
2021/08/26 08:39:05;;;;;;;1.45;1.15;;;20.00;65.60;;;;;;4896116;29;20049;-80
2021/08/26 08:41:32;;;;;;;2.55;1.15;;;20.10;65.70;;;;;;4894216;29;20043;-83
2021/08/26 08:44:00;;;;;;;1.88;1.20;;;20.10;65.60;;;;;;4915066;29;20143;-84
2021/08/26 08:46:27;;;;;;;2.78;1.10;;;20.10;65.70;;;;;;4902553;29;20039;-83
2021/08/26 08:48:55;;;;;;;1.73;1.15;;;20.10;65.70;;;;;;4917008;29;20042;-82
2021/08/26 08:51:23;;;;;;;2.92;1.20;;;20.20;65.70;;;;;;4901011;29;20124;-82
2021/08/26 08:53:49;;;;;;;1.50;1.10;;;20.20;65.70;;;;;;4900853;29;20488;-80
2021/08/26 08:56:16;;;;;;;2.33;1.08;;;20.20;65.70;;;;;;4917819;29;20028;-81
2021/08/26 08:58:42;;;;;;;2.90;1.10;;;20.20;65.70;;;;;;4889591;29;20044;-80
2021/08/26 09:01:09;;;;;;;3.08;1.33;;;20.20;65.70;;;;;;4901017;29;20036;-82
2021/08/26 09:03:38;;;;;;;2.08;1.20;;;20.20;65.60;;;;;;4900267;29;20055;-81
2021/08/26 09:06:05;;;;;;;1.25;1.13;;;20.30;65.80;;;;;;4916571;29;20040;-81
2021/08/26 09:08:32;;;;;;;1.90;0.93;;;20.30;65.70;;;;;;4899471;29;20059;-81
2021/08/26 09:11:15;;;;;;;2.00;1.10;;;20.30;65.60;;;;;;4917099;29;20046;-85
2021/08/26 09:13:43;;;;;;;1.55;1.08;;;20.40;65.80;;;;;;4899274;29;20028;-79
2021/08/26 09:16:10;;;;;;;1.63;1.10;;;20.40;65.60;;;;;;4895411;29;20036;-79
2021/08/26 09:18:36;;;;;;;1.88;1.17;;;20.40;65.60;;;;;;4902069;29;20634;-81
2021/08/26 09:21:05;;;;;;;2.10;1.15;;;20.40;65.60;;;;;;4918370;29;20036;-81
2021/08/26 09:23:33;;;;;;;3.28;1.42;;;20.50;65.60;;;;;;4901940;29;20036;-81
2021/08/26 09:26:16;;;;;;;2.78;1.20;;;20.50;65.60;;;;;;4917262;29;20044;-83
2021/08/26 09:28:42;;;;;;;1.20;1.10;;;20.50;65.60;;;;;;4918522;29;20039;-82
2021/08/26 09:31:28;;;;;;;2.10;1.25;;;20.60;65.50;;;;;;4901968;29;20440;-82
2021/08/26 09:33:58;;;;;;;1.98;1.30;;;20.60;65.60;;;;;;4917522;29;20068;-83
2021/08/26 09:36:32;;;;;;;2.88;1.35;;;20.70;65.40;;;;;;4907154;29;20029;-84
2021/08/26 09:39:06;;;;;;;1.98;1.40;;;20.70;65.40;;;;;;4914857;29;20048;-83
2021/08/26 09:41:34;;;;;;;2.35;1.15;;;20.80;65.30;;;;;;4891351;29;20021;-82
2021/08/26 09:44:04;;;;;;;1.73;1.10;;;20.80;65.20;;;;;;4907843;29;20450;-83
2021/08/26 09:46:32;;;;;;;2.10;1.40;;;20.80;65.20;;;;;;4908922;29;20035;-82
2021/08/26 09:49:09;;;;;;;1.88;1.20;;;20.80;65.20;;;;;;4917859;29;20039;-82
2021/08/26 09:51:35;;;;;;;2.50;1.25;;;20.90;65.20;;;;;;4917055;29;20028;-83
2021/08/26 09:54:01;;;;;;;2.15;1.30;;;20.90;65.20;;;;;;4885389;29;20536;-85
2021/08/26 09:56:40;;;;;;;1.65;1.10;;;20.90;65.10;;;;;;4901026;29;20032;-84
2021/08/26 09:59:12;;;;;;;2.65;1.10;;;21.00;65.20;;;;;;4890900;29;20048;-82
2021/08/26 10:01:44;;;;;;;1.95;1.20;;;21.00;65.10;;;;;;4909399;29;20496;-83
2021/08/26 10:04:27;;;;;;;1.27;1.05;;;21.00;65.00;;;;;;4901372;29;20119;-82
2021/08/26 10:06:53;;;;;;;2.55;1.10;;;21.00;65.10;;;;;;4910474;29;20123;-82
2021/08/26 10:09:20;;;;;;;1.63;0.93;;;21.10;65.00;;;;;;4917999;29;20366;-82
2021/08/26 10:11:46;;;;;;;3.42;1.30;;;21.10;65.00;;;;;;4917568;29;20024;-82
2021/08/26 10:14:11;;;;;;;1.35;0.93;;;21.10;64.90;;;;;;4901133;29;20028;-81
2021/08/26 10:16:41;;;;;;;2.38;1.10;;;21.10;64.90;;;;;;4915883;29;20240;-82
2021/08/26 10:19:11;;;;;;;1.83;1.15;;;21.20;65.00;;;;;;4916248;29;20115;-82
2021/08/26 10:21:37;;;;;;;3.33;1.50;;;21.20;64.90;;;;;;4900426;29;20123;-82
2021/08/26 10:24:04;;;;;;;2.20;1.05;;;21.20;64.90;;;;;;4916449;29;20106;-83
2021/08/26 10:26:30;;;;;;;2.65;1.10;;;21.20;64.90;;;;;;4897012;29;20549;-85
2021/08/26 10:28:58;;;;;;;1.42;1.20;;;21.20;64.90;;;;;;4915881;29;20024;-82
2021/08/26 10:31:26;;;;;;;2.30;1.20;;;21.20;64.90;;;;;;4915619;29;20025;-81
2021/08/26 10:34:12;;;;;;;3.05;1.58;;;21.30;64.90;;;;;;4915362;29;20036;-79
2021/08/26 10:36:57;;;;;;;2.92;1.25;;;21.30;65.10;;;;;;4916634;29;20028;-83
2021/08/26 10:39:40;;;;;;;1.52;1.05;;;21.30;65.00;;;;;;4915439;29;20040;-79
2021/08/26 10:42:32;;;;;;;2.08;1.30;;;21.30;65.10;;;;;;4884639;29;20469;-81
2021/08/26 10:45:20;;;;;;;2.53;1.30;;;21.30;64.90;;;;;;4900538;29;20032;-79
2021/08/26 10:47:49;;;;;;;2.92;1.35;;;21.40;64.80;;;;;;4915767;29;20106;-80
2021/08/26 10:50:15;;;;;;;2.20;1.40;;;21.40;64.90;;;;;;4916860;29;20054;-82
2021/08/26 10:53:03;;;;;;;3.17;1.48;;;21.40;64.80;;;;;;4916258;29;20469;-81
2021/08/26 10:55:42;;;;;;;2.50;1.25;;;21.40;64.90;;;;;;4915723;29;20469;-82
2021/08/26 10:58:26;;;;;;;2.63;1.30;;;21.50;64.80;;;;;;4915634;29;20055;-82
2021/08/26 11:01:00;;;;;;;3.17;1.58;;;21.50;64.80;;;;;;4916259;29;20598;-81
2021/08/26 11:03:32;;;;;;;2.97;1.33;;;21.50;64.70;;;;;;4899274;29;20031;-83
2021/08/26 11:06:21;;;;;;;2.30;1.08;;;21.60;64.70;;;;;;5105680;28;20972;-81
2021/08/26 11:08:54;;;;;;;2.35;1.23;;;21.60;64.80;;;;;;5088071;28;20635;-80
2021/08/26 11:11:32;;;;;;;1.98;1.17;;;21.60;64.70;;;;;;5087944;28;20086;-80
2021/08/26 11:14:07;;;;;;;2.40;1.30;;;21.60;64.70;;;;;;5071337;28;20024;-80
2021/08/26 11:16:37;;;;;;;3.17;1.50;;;21.70;64.70;;;;;;5080678;28;20488;-81
2021/08/26 11:19:15;;;;;;;2.70;1.20;;;21.70;64.60;;;;;;5062667;28;20483;-81
2021/08/26 11:21:44;;;;;;;3.35;1.70;;;21.70;64.70;;;;;;5087986;28;20016;-81
2021/08/26 11:24:15;;;;;;;2.60;1.17;;;21.80;64.60;;;;;;5088344;28;20038;-80
2021/08/26 11:26:45;;;;;;;2.22;1.20;;;21.80;64.60;;;;;;5088272;28;20035;-81
2021/08/26 11:29:17;;;;;;;3.03;1.30;;;21.80;64.50;;;;;;5071419;28;20472;-80
2021/08/26 11:31:44;;;;;;;2.65;1.20;;;21.90;64.60;;;;;;5087760;28;20386;-83
2021/08/26 11:34:09;;;;;;;2.53;1.40;;;22.00;64.60;;;;;;5087695;28;20059;-80
2021/08/26 11:36:36;;;;;;;3.38;1.45;;;21.90;64.50;;;;;;5071442;28;20021;-83
2021/08/26 11:39:02;;;;;;;2.47;1.38;;;21.90;64.60;;;;;;5088815;28;20037;-81
2021/08/26 11:41:28;;;;;;;2.78;1.30;;;22.00;64.60;;;;;;5071655;28;20058;-80
2021/08/26 11:43:54;;;;;;;2.97;1.38;;;22.10;64.70;;;;;;5054400;28;20028;-81
2021/08/26 11:46:20;;;;;;;2.10;1.35;;;22.10;64.70;;;;;;5088080;28;20392;-81
2021/08/26 11:48:51;;;;;;;2.05;1.30;;;22.20;64.70;;;;;;5071001;28;20035;-80
2021/08/26 11:51:26;;;;;;;2.20;1.50;;;22.20;64.70;;;;;;5087090;28;20032;-81
2021/08/26 11:53:52;;;;;;;3.88;1.70;;;22.20;64.60;;;;;;5070337;28;20035;-80
2021/08/26 11:56:18;;;;;;;3.78;1.50;;;22.30;64.60;;;;;;5071319;28;20032;-80
2021/08/26 11:58:43;;;;;;;3.05;1.67;;;22.30;64.60;;;;;;5061110;28;20534;-80
2021/08/26 12:01:10;;;;;;;3.53;1.63;;;22.30;64.60;;;;;;5070637;28;20055;-80
2021/08/26 12:03:35;;;;;;;3.40;1.48;;;22.30;64.50;;;;;;5088602;28;20025;-80
2021/08/26 12:06:09;;;;;;;3.80;1.80;;;22.40;64.50;;;;;;5052464;28;20060;-80
2021/08/26 12:08:46;;;;;;;4.40;1.67;;;22.40;64.60;;;;;;5056869;28;20031;-81
2021/08/26 12:11:12;;;;;;;3.40;1.42;;;22.50;64.60;;;;;;5088262;28;20035;-80
2021/08/26 12:13:39;;;;;;;2.72;1.60;;;22.50;64.40;;;;;;5088241;28;20020;-86
2021/08/26 12:16:05;;;;;;;3.85;1.85;;;22.50;64.30;;;;;;5064703;28;20499;-80
2021/08/26 12:18:31;;;;;;;2.67;1.50;;;22.50;64.30;;;;;;5055723;28;20501;-80
2021/08/26 12:21:01;;;;;;;4.70;1.98;;;22.60;64.30;;;;;;5056734;28;20115;-80
2021/08/26 12:23:29;;;;;;;3.72;1.67;;;22.60;64.30;;;;;;5073102;28;20032;-80
2021/08/26 12:26:10;;;;;;;3.35;1.50;;;22.60;64.20;;;;;;5073655;28;20036;-80
2021/08/26 12:28:48;;;;;;;3.20;1.60;;;22.60;64.30;;;;;;5075083;28;20380;-80
2021/08/26 12:31:17;;;;;;;4.60;1.70;;;22.70;64.10;;;;;;5073789;28;20024;-80
2021/08/26 12:34:05;;;;;;;3.13;1.45;;;22.70;64.00;;;;;;5072765;28;20029;-83
2021/08/26 12:36:33;;;;;;;2.88;1.70;;;22.80;64.20;;;;;;5074866;28;20032;-81
2021/08/26 12:38:59;;;;;;;4.40;1.85;;;22.80;64.00;;;;;;5073472;28;20312;-81
2021/08/26 12:41:25;;;;;;;4.35;2.03;;;22.80;63.90;;;;;;5057185;28;20111;-81
2021/08/26 12:43:53;;;;;;;4.00;1.70;;;22.80;63.90;;;;;;5056045;28;20076;-81
2021/08/26 12:46:25;;;;;;;3.03;1.65;;;22.80;63.80;;;;;;5074716;28;20269;-81
2021/08/26 12:49:02;;;;;;;3.55;1.75;;;22.90;63.90;;;;;;5073554;28;20061;-81
2021/08/26 12:51:29;;;;;;;2.55;1.60;;;22.90;63.70;;;;;;5064544;28;20065;-82
2021/08/26 12:54:03;;;;;;;3.50;1.55;;;22.90;63.60;;;;;;5023225;28;20549;-80
2021/08/26 12:56:58;;;;;;;3.88;1.80;;;23.00;63.60;;;;;;5074466;28;20078;-81
2021/08/26 12:59:41;;;;;;;2.83;1.73;;;23.00;63.60;;;;;;5045416;28;20032;-81